Aérodrome :
LOGIN :

S'inscrire | Disclaimer

   EN    FR    IT 

 










Légende :    VFR   VFR Marginal   IFR   IFR Intensif   IFR Très Intensif
Visi : 
Plafond : 
>= 8 km
>= 3000ft
5 à 8 km
1000 à 3000 ft
1500m à 5 km
500 à 1000 ft
800 à 1500m
200 à 500 ft
< 800m
< 200 ft
Symboles :   Orages  Brouillard  Fortes neiges  Fortes précipitations  Vent > 20 kt
SIGMETs :   Divers  Orages  Givrage  Turbulence  Onde Orograph.  Cendres Volcan.







- Altitude de l'aérodrome : 364 ft
- Code IATA : FRA


EDDF - Frankfurt Int.

DERNIER METAR :
  • 220620Z 05006KT CAVOK 16/12 Q1015 NOSIG

METARs EXPIRÉS :
  • 220550Z 04005KT 360V080 CAVOK 16/11 Q1015 NOSIG
  • 220520Z 01006KT CAVOK 15/11 Q1015 NOSIG
  • 220450Z 06004KT 010V080 CAVOK 15/11 Q1015 NOSIG
  • 220420Z 04006KT 330V060 CAVOK 15/11 Q1015 NOSIG
  • 220350Z 06004KT CAVOK 15/11 Q1015 NOSIG

TAF TAF EDDF
Valide du 22 à 06h jusqu'au 23 à 12h UTC


220500Z 2206/2312 06005KT CAVOK
BECMG 2208/2210 21007KT
PROB30
TEMPO 2214/2220 23015G30KT -TSRA SCT050CB
TEMPO 2304/2309 SHRA BKN030TCU
PROB30
TEMPO 2304/2308 23015G30KT TSRA BKN025CB
Pas de NOTAMs connus pour ce terrain.



MET'MAP, la Météo Aéronautique d'un coup d'oeil ! - Copyright ORBIFLY Décembre 2007 - Disclaimer

ORBIFLY MET'MAP TEAM :

Programmation & Développement : Alexandra Zaïnal
Conception & Développement : Baudouin d'Aumeries
Co-Programmation & Développement : Marc-Olivier Méhu
Soutien technique & logistique : Manuel Goepfert

Contact : metmap@orbifly.com




SOURCES & CREDITS :

   NOAA